Buena Vista, PA (15018)

1:07 PM EDT on September 02, 2015 (GMT -0400)
Jacktown Acres | | Change Station
CLOSE
Current Station
Personal Weather Station
Location: North Huntingdon, PA
Elevation: 1017 ft
Nearby Weather Stations

Elev 1017 ft 40.32 °N, 79.76 °W | Updated 48 seconds ago

Overcast
Overcast
71.1 °F
Feels Like 71.1 °F
N
0.0
Wind Variable Wind from West
Gusts 0.0 mph

Today
High -- | Low -- °F
--% Chance of Precip.
Yesterday
High -- | Low -- °F
Precip. -- in
6:47 AM 7:49 PM
Waning Gibbous, 79% visible
Pressure 30.08 in
Visibility 10.0 miles
Clouds Clear
Dew Point 67 °F
Humidity 86%
Rainfall 0.18 in
Snow Depth Not available.
UV 2.2 out of 12
Pollen 10.00 out of 12
Air Quality Not available.
Flu Activity Not available.
SPECI KAGC 021702Z 18006KT 10SM CLR 24/18 A3008 RMK AO2 RAE1656 TSE1656 P0000 T02440178
Pressure 30.08 in
Visibility 10.0 miles
Clouds Clear
Dew Point 67 °F
Humidity 86%
Rainfall 0.18 in
Snow Depth Not available.
UV 2.2 out of 12
Pollen 10.00 out of 12
Air Quality Not available.
Flu Activity Not available.
SPECI KAGC 021702Z 18006KT 10SM CLR 24/18 A3008 RMK AO2 RAE1656 TSE1656 P0000 T02440178

10-Day Weather Forecast

×

Almanac

Astronomy

Sep. 02, 2015 Rise Set
Actual Time
Civil Twilight
Nautical Twilight
Astronomical Twilight
Moon
Length of Visible Light
Length of Day
Tomorrow will be .
, % of the Moon is Illuminated

Today's Extremes

State Highs State Lows

Community

WunderPhotos

Upload Photos

1,851,785 photos uploaded!

WunderBlogs® & News

Nearby

Air Quality

  Air Quality AQ Index Pollutant
Not available.

Snow Depth

Station Depth Elevation

Earthquake Activity

City Distance Mag. Time & Date
Minimum magnitude displayed is 2.5.

Coastal Water Temperatures

Place Temperature

Stations

Nearby Weather Stations

Station Location Temp. Windchill Dew Point Humidity Wind Precip. Elev Updated Type